createdAt,value
2022-10-20T00:01:50.844Z,11.40
2022-10-20T00:04:19.473Z,11.40
2022-10-20T00:06:48.197Z,11.30
2022-10-20T00:09:16.815Z,11.20
2022-10-20T00:11:46.228Z,11.20
2022-10-20T00:14:14.879Z,11.20
2022-10-20T00:16:43.455Z,11.20
2022-10-20T00:19:13.836Z,11.10
2022-10-20T00:21:42.424Z,11.10
2022-10-20T00:24:10.996Z,11.10
2022-10-20T00:26:39.592Z,11.10
2022-10-20T00:29:08.247Z,11.20
2022-10-20T00:31:36.960Z,11.10
2022-10-20T00:34:05.567Z,11.10
2022-10-20T00:36:35.598Z,11.10
2022-10-20T00:39:07.073Z,11.10
2022-10-20T00:41:36.028Z,11.00
2022-10-20T00:44:35.408Z,11.10
2022-10-20T00:47:04.027Z,11.00
2022-10-20T00:49:33.064Z,11.00
2022-10-20T00:52:03.090Z,11.10
2022-10-20T00:54:32.348Z,11.00
2022-10-20T00:59:38.015Z,10.80
2022-10-20T01:02:08.780Z,10.70
2022-10-20T01:04:39.266Z,10.70
2022-10-20T01:07:09.371Z,10.70
2022-10-20T01:09:39.164Z,10.70
2022-10-20T01:12:22.533Z,10.70
2022-10-20T01:15:03.950Z,10.60
2022-10-20T01:17:45.869Z,10.60
2022-10-20T01:20:53.716Z,10.50
2022-10-20T01:23:55.743Z,10.50
2022-10-20T01:27:19.852Z,10.60
2022-10-20T01:29:59.704Z,10.60
2022-10-20T01:32:45.385Z,10.60
2022-10-20T01:35:26.546Z,10.50
2022-10-20T01:38:05.999Z,10.50
2022-10-20T01:40:44.773Z,10.50
2022-10-20T01:43:16.951Z,10.50
2022-10-20T01:45:50.615Z,10.50
2022-10-20T01:48:27.364Z,10.50
2022-10-20T01:50:56.885Z,10.40
2022-10-20T01:53:25.446Z,10.40
2022-10-20T01:55:57.662Z,10.40
2022-10-20T01:59:22.252Z,10.40
2022-10-20T02:02:20.934Z,10.40
2022-10-20T02:05:11.652Z,10.40
2022-10-20T02:07:44.214Z,10.40
2022-10-20T02:10:20.454Z,10.40
2022-10-20T02:12:57.942Z,10.40
2022-10-20T02:15:31.687Z,10.40
2022-10-20T02:18:07.920Z,10.40
2022-10-20T02:20:38.143Z,10.40
2022-10-20T02:23:07.890Z,10.40
2022-10-20T02:25:38.807Z,10.40
2022-10-20T02:28:11.865Z,10.30
2022-10-20T02:30:42.345Z,10.30
2022-10-20T02:33:13.860Z,10.30
2022-10-20T02:35:51.456Z,10.30
2022-10-20T02:38:20.181Z,10.20
2022-10-20T02:40:48.961Z,10.20
2022-10-20T02:43:17.649Z,10.10
2022-10-20T02:45:46.417Z,10.10
2022-10-20T02:48:16.401Z,10.10
2022-10-20T02:50:45.118Z,10.10
2022-10-20T02:53:13.849Z,10.00
2022-10-20T02:55:43.860Z,10.00
2022-10-20T02:58:12.621Z,9.90
2022-10-20T03:00:41.313Z,9.80
2022-10-20T03:03:10.023Z,9.90
2022-10-20T03:05:44.604Z,9.90
2022-10-20T03:08:13.320Z,10.00
2022-10-20T03:10:42.879Z,9.80
2022-10-20T03:13:12.478Z,9.80
2022-10-20T03:15:42.266Z,9.90
2022-10-20T03:18:10.932Z,9.80
2022-10-20T03:20:41.074Z,9.80
2022-10-20T03:23:09.872Z,9.70
2022-10-20T03:25:38.947Z,9.70
2022-10-20T03:28:07.740Z,9.70
2022-10-20T03:30:36.423Z,9.70
2022-10-20T03:33:05.252Z,9.80
2022-10-20T03:35:34.150Z,9.80
2022-10-20T03:38:04.300Z,9.90
2022-10-20T03:40:33.015Z,9.80
2022-10-20T03:43:02.521Z,9.80
2022-10-20T03:45:31.784Z,9.80
2022-10-20T03:48:00.513Z,9.80
2022-10-20T03:50:29.232Z,9.70
2022-10-20T03:52:57.844Z,9.70
2022-10-20T03:55:27.892Z,9.60
2022-10-20T03:57:56.902Z,9.70
2022-10-20T04:00:25.903Z,9.50
2022-10-20T04:02:54.744Z,9.50
2022-10-20T04:05:23.754Z,9.50
2022-10-20T04:07:52.665Z,9.50
2022-10-20T04:10:21.280Z,9.40
2022-10-20T04:12:51.341Z,9.40
2022-10-20T04:15:20.334Z,9.40
2022-10-20T04:17:49.456Z,9.20
2022-10-20T04:20:18.409Z,9.20
2022-10-20T04:22:47.399Z,9.10
2022-10-20T04:25:15.995Z,9.20
2022-10-20T04:27:44.982Z,9.10
2022-10-20T04:30:14.958Z,9.10
2022-10-20T04:32:43.517Z,9.00
2022-10-20T04:35:12.166Z,9.00
2022-10-20T04:37:40.670Z,9.00
2022-10-20T04:40:10.939Z,8.90
2022-10-20T04:42:39.475Z,8.90
2022-10-20T04:45:09.484Z,8.80
2022-10-20T04:47:39.932Z,8.70
2022-10-20T04:50:09.752Z,8.60
2022-10-20T04:52:38.606Z,8.60
2022-10-20T04:55:08.318Z,8.70
2022-10-20T04:57:37.136Z,8.70
2022-10-20T05:00:07.369Z,8.70
2022-10-20T05:02:35.950Z,8.70
2022-10-20T05:05:06.810Z,8.80
2022-10-20T05:07:35.653Z,8.80
2022-10-20T05:10:05.296Z,8.70
2022-10-20T05:12:34.168Z,8.70
2022-10-20T05:15:03.063Z,8.70
2022-10-20T05:17:31.850Z,8.70
2022-10-20T05:20:00.466Z,8.60
2022-10-20T05:22:32.593Z,8.60
2022-10-20T05:25:24.575Z,8.60
2022-10-20T05:27:49.877Z,8.70
2022-10-20T05:30:18.605Z,8.80
2022-10-20T05:32:48.222Z,8.80
2022-10-20T05:35:17.089Z,9.10
2022-10-20T05:37:47.211Z,9.50
2022-10-20T05:40:16.333Z,9.90
2022-10-20T05:42:45.939Z,10.10
2022-10-20T05:45:14.730Z,10.50
2022-10-20T05:47:43.902Z,10.90
2022-10-20T05:50:12.822Z,11.10
2022-10-20T05:52:41.404Z,11.30
2022-10-20T05:55:12.140Z,11.70
2022-10-20T05:57:40.733Z,12.10
2022-10-20T06:00:11.577Z,12.30
2022-10-20T06:02:40.137Z,12.70
2022-10-20T06:05:09.081Z,13.10
2022-10-20T06:07:37.731Z,13.60
2022-10-20T06:10:07.442Z,13.80
2022-10-20T06:12:38.813Z,14.10
2022-10-20T06:15:09.419Z,14.70
2022-10-20T06:17:38.009Z,15.00
2022-10-20T06:20:07.626Z,15.10
2022-10-20T06:22:36.419Z,15.30
2022-10-20T06:25:06.127Z,15.40
2022-10-20T06:27:34.692Z,15.50
2022-10-20T06:30:05.208Z,15.70
2022-10-20T06:32:34.280Z,16.10
2022-10-20T06:35:02.993Z,16.60
2022-10-20T06:37:31.565Z,16.70
2022-10-20T06:40:00.412Z,16.70
2022-10-20T06:42:29.532Z,17.10
2022-10-20T06:44:58.812Z,17.30
2022-10-20T06:47:31.890Z,17.70
2022-10-20T06:50:00.591Z,18.00
2022-10-20T06:52:29.159Z,18.30
2022-10-20T06:54:57.767Z,18.00
2022-10-20T06:57:26.329Z,18.10
2022-10-20T06:59:54.869Z,17.90
2022-10-20T07:02:23.911Z,18.00
2022-10-20T07:04:53.935Z,18.00
2022-10-20T07:07:22.453Z,18.00
2022-10-20T07:09:51.013Z,17.90
2022-10-20T07:12:19.536Z,17.60
2022-10-20T07:14:49.509Z,18.50
2022-10-20T07:17:18.099Z,18.80
2022-10-20T07:19:46.651Z,19.30
2022-10-20T07:22:16.621Z,19.50
2022-10-20T07:24:45.174Z,18.20
2022-10-20T07:27:13.770Z,17.70
2022-10-20T07:29:42.299Z,17.80
2022-10-20T07:32:10.887Z,18.50
2022-10-20T07:34:39.463Z,19.10
2022-10-20T07:37:08.036Z,18.40
2022-10-20T07:39:37.954Z,18.80
2022-10-20T07:42:06.578Z,19.00
2022-10-20T07:44:35.396Z,19.90
2022-10-20T07:47:04.111Z,19.80
2022-10-20T07:49:47.936Z,19.70
2022-10-20T07:52:17.180Z,19.90
2022-10-20T07:54:47.157Z,19.10
2022-10-20T07:57:15.747Z,19.90
2022-10-20T07:59:44.499Z,20.00
2022-10-20T08:02:15.837Z,19.40
2022-10-20T08:04:45.776Z,19.70
2022-10-20T08:07:14.409Z,18.90
2022-10-20T08:12:13.825Z,18.40
2022-10-20T08:14:44.657Z,19.70
2022-10-20T08:17:13.312Z,20.40
2022-10-20T08:19:46.649Z,21.00
2022-10-20T08:22:16.176Z,20.40
2022-10-20T08:24:44.837Z,19.30
2022-10-20T08:27:15.024Z,19.20
2022-10-20T08:29:50.712Z,18.60
2022-10-20T08:32:28.874Z,18.40
2022-10-20T08:34:57.415Z,18.00
2022-10-20T08:37:26.100Z,17.50
2022-10-20T08:39:54.736Z,17.40
2022-10-20T08:42:25.925Z,17.40
2022-10-20T08:45:00.115Z,17.90
2022-10-20T08:47:36.551Z,19.40
2022-10-20T08:50:09.887Z,19.80
2022-10-20T08:52:42.179Z,18.60
2022-10-20T08:55:23.568Z,18.30
2022-10-20T08:57:54.666Z,18.40
2022-10-20T09:00:27.023Z,18.30
2022-10-20T09:02:57.649Z,18.40
2022-10-20T09:05:32.639Z,18.70
2022-10-20T09:08:01.430Z,18.50
2022-10-20T09:10:37.708Z,18.90
2022-10-20T09:13:21.492Z,19.60
2022-10-20T09:15:52.665Z,18.60
2022-10-20T09:18:21.918Z,19.40
2022-10-20T09:20:55.711Z,19.80
2022-10-20T09:23:41.106Z,20.10
2022-10-20T09:26:25.057Z,20.70
2022-10-20T09:29:14.506Z,21.20
2022-10-20T09:31:47.590Z,20.40
2022-10-20T09:34:25.562Z,20.30
2022-10-20T09:37:00.592Z,20.20
2022-10-20T09:39:43.399Z,19.90
2022-10-20T09:42:20.138Z,19.50
2022-10-20T09:44:57.783Z,20.80
2022-10-20T09:47:28.566Z,20.60
2022-10-20T09:50:03.310Z,19.10
2022-10-20T09:52:38.207Z,19.70
2022-10-20T09:55:22.106Z,19.30
2022-10-20T09:57:51.115Z,19.70
2022-10-20T10:00:38.848Z,19.70
2022-10-20T10:03:23.535Z,20.20
2022-10-20T10:05:55.134Z,20.20
2022-10-20T10:08:27.336Z,19.60
2022-10-20T10:11:03.168Z,19.40
2022-10-20T10:13:39.793Z,19.50
2022-10-20T10:16:14.286Z,19.80
2022-10-20T10:18:48.475Z,19.80
2022-10-20T10:21:18.437Z,19.80
2022-10-20T10:23:56.461Z,18.90
2022-10-20T10:26:53.908Z,18.90
2022-10-20T10:29:28.787Z,19.00
2022-10-20T10:32:04.725Z,19.60
2022-10-20T10:35:09.138Z,19.30
2022-10-20T10:37:41.866Z,18.90
2022-10-20T10:40:18.109Z,19.00
2022-10-20T10:43:17.057Z,18.80
2022-10-20T10:45:53.232Z,19.30
2022-10-20T10:49:07.733Z,18.70
2022-10-20T10:51:55.468Z,18.80
2022-10-20T10:54:47.120Z,18.10
2022-10-20T10:57:28.140Z,18.20
2022-10-20T11:00:01.392Z,19.10
2022-10-20T11:02:59.954Z,19.60
2022-10-20T11:06:05.984Z,19.40
2022-10-20T11:09:09.929Z,19.40
2022-10-20T11:11:52.856Z,18.90
2022-10-20T11:14:41.064Z,18.00
2022-10-20T11:17:30.400Z,18.60
2022-10-20T11:20:22.425Z,18.60
2022-10-20T11:23:21.291Z,18.90
2022-10-20T11:25:57.850Z,18.20
2022-10-20T11:28:34.505Z,18.60
2022-10-20T11:31:04.241Z,19.10
2022-10-20T11:33:44.840Z,19.10
2022-10-20T11:36:22.117Z,19.00
2022-10-20T11:38:56.053Z,18.80
2022-10-20T11:41:33.486Z,19.00
2022-10-20T11:44:09.528Z,18.50
2022-10-20T11:46:47.116Z,18.30
2022-10-20T11:49:16.340Z,17.90
2022-10-20T11:52:26.432Z,17.90
2022-10-20T11:55:25.183Z,17.70
2022-10-20T11:58:22.649Z,17.80
2022-10-20T12:01:06.328Z,17.90
2022-10-20T12:04:26.378Z,17.60
2022-10-20T12:07:27.691Z,17.20
2022-10-20T12:10:14.346Z,17.60
2022-10-20T12:12:57.260Z,17.60
2022-10-20T12:15:29.036Z,17.40
2022-10-20T12:18:05.912Z,17.50
2022-10-20T12:20:56.546Z,17.50
2022-10-20T12:24:05.763Z,17.50
2022-10-20T12:27:11.933Z,17.40
2022-10-20T12:30:43.199Z,17.20
2022-10-20T12:33:20.120Z,17.10
2022-10-20T12:36:27.670Z,17.10
2022-10-20T12:39:19.244Z,17.20
2022-10-20T12:42:00.449Z,17.00
2022-10-20T12:44:40.165Z,16.90
2022-10-20T12:47:18.714Z,16.90
2022-10-20T12:49:56.827Z,16.70
2022-10-20T12:52:32.572Z,16.60
2022-10-20T12:55:09.400Z,16.60
2022-10-20T12:57:42.523Z,16.40
2022-10-20T13:01:03.980Z,16.30
2022-10-20T13:03:47.020Z,16.10
2022-10-20T13:06:46.625Z,16.10
2022-10-20T13:09:25.541Z,16.20
2022-10-20T13:12:26.850Z,16.40
2022-10-20T13:15:04.000Z,16.30
2022-10-20T13:17:52.358Z,16.20
2022-10-20T13:20:31.023Z,16.10
2022-10-20T13:23:01.059Z,16.20
2022-10-20T13:25:41.273Z,16.10
2022-10-20T13:28:21.900Z,15.90
2022-10-20T13:31:23.499Z,16.00
2022-10-20T13:34:06.198Z,16.10
2022-10-20T13:37:02.364Z,16.00
2022-10-20T13:39:45.201Z,15.90
2022-10-20T13:42:42.271Z,16.00
2022-10-20T13:45:26.141Z,15.90
2022-10-20T13:48:10.168Z,15.80
2022-10-20T13:50:43.754Z,15.70
2022-10-20T13:53:22.975Z,15.60
2022-10-20T13:56:06.749Z,15.60
2022-10-20T13:58:36.446Z,15.60
2022-10-20T14:01:16.908Z,15.80
2022-10-20T14:03:48.516Z,15.90
2022-10-20T14:06:36.018Z,15.90
2022-10-20T14:09:18.020Z,15.90
2022-10-20T14:11:49.398Z,16.00
2022-10-20T14:14:25.041Z,15.90
2022-10-20T14:16:57.569Z,15.80
2022-10-20T14:19:29.254Z,15.70
2022-10-20T14:22:00.782Z,15.80
2022-10-20T14:24:35.458Z,15.70
2022-10-20T14:27:24.981Z,15.60
2022-10-20T14:29:55.073Z,15.60
2022-10-20T14:32:27.685Z,15.50
2022-10-20T14:34:59.598Z,15.50
2022-10-20T14:37:33.976Z,15.50
2022-10-20T14:40:09.390Z,15.40
2022-10-20T14:42:38.443Z,15.40
2022-10-20T14:45:08.301Z,15.30
2022-10-20T14:47:43.409Z,15.30
2022-10-20T14:50:24.847Z,15.30
2022-10-20T14:52:54.467Z,15.30
2022-10-20T14:55:37.679Z,15.30
2022-10-20T14:58:06.491Z,15.30
2022-10-20T15:00:37.572Z,15.40
2022-10-20T15:03:08.675Z,15.40
2022-10-20T15:05:44.340Z,15.40
2022-10-20T15:08:27.079Z,15.50
2022-10-20T15:10:57.639Z,15.30
2022-10-20T15:13:33.816Z,15.40
2022-10-20T15:16:04.654Z,15.40
2022-10-20T15:18:37.796Z,15.30
2022-10-20T15:21:11.963Z,15.40
2022-10-20T15:23:40.480Z,15.30
2022-10-20T15:26:14.877Z,15.30
2022-10-20T15:28:47.317Z,15.20
2022-10-20T15:31:23.738Z,15.20
2022-10-20T15:33:53.400Z,15.20
2022-10-20T15:36:28.436Z,15.20
2022-10-20T15:38:57.796Z,15.20
2022-10-20T15:41:31.582Z,15.10
2022-10-20T15:44:08.974Z,15.00
2022-10-20T15:46:37.790Z,15.00
2022-10-20T15:49:06.338Z,14.90
2022-10-20T15:51:40.007Z,14.90
2022-10-20T15:54:09.483Z,14.90
2022-10-20T15:56:39.635Z,14.90
2022-10-20T15:59:08.274Z,14.90
2022-10-20T16:01:37.064Z,14.90
2022-10-20T16:04:23.187Z,14.90
2022-10-20T16:06:57.617Z,14.80
2022-10-20T16:09:29.078Z,14.80
2022-10-20T16:11:59.109Z,14.60
2022-10-20T16:14:27.809Z,14.60
2022-10-20T16:16:58.920Z,14.50
2022-10-20T16:19:27.634Z,14.50
2022-10-20T16:21:56.305Z,14.40
2022-10-20T16:24:25.060Z,14.40
2022-10-20T16:26:53.847Z,14.40
2022-10-20T16:29:24.139Z,14.40
2022-10-20T16:31:52.730Z,14.50
2022-10-20T16:34:21.312Z,14.40
2022-10-20T16:36:51.564Z,14.40
2022-10-20T16:39:20.363Z,14.30
2022-10-20T16:41:49.082Z,14.20
2022-10-20T16:44:17.672Z,14.10
2022-10-20T16:46:47.926Z,14.10
2022-10-20T16:49:16.685Z,14.10
2022-10-20T16:51:45.408Z,14.00
2022-10-20T16:54:14.063Z,13.90
2022-10-20T16:56:42.694Z,13.90
2022-10-20T16:59:11.287Z,13.80
2022-10-20T17:01:40.124Z,13.90
2022-10-20T17:04:12.171Z,13.90
2022-10-20T17:06:40.941Z,13.90
2022-10-20T17:09:09.616Z,13.70
2022-10-20T17:11:38.492Z,13.60
2022-10-20T17:14:07.554Z,13.50
2022-10-20T17:16:38.392Z,13.40
2022-10-20T17:19:07.514Z,13.40
2022-10-20T17:21:38.607Z,13.50
2022-10-20T17:24:12.688Z,13.60
2022-10-20T17:26:43.530Z,13.50
2022-10-20T17:29:12.469Z,13.50
2022-10-20T17:31:41.522Z,13.50
2022-10-20T17:34:11.008Z,13.40
2022-10-20T17:36:41.466Z,13.20
2022-10-20T17:39:10.250Z,13.20
2022-10-20T17:41:39.224Z,13.20
2022-10-20T17:44:09.425Z,13.20
2022-10-20T17:46:38.709Z,13.20
2022-10-20T17:49:07.598Z,13.20
2022-10-20T17:51:36.509Z,13.20
2022-10-20T17:54:07.044Z,13.20
2022-10-20T17:56:40.253Z,13.10
2022-10-20T17:59:09.613Z,13.00
2022-10-20T18:01:40.966Z,12.90
2022-10-20T18:04:12.789Z,12.90
2022-10-20T18:06:42.759Z,12.80
2022-10-20T18:09:15.838Z,12.80
2022-10-20T18:11:47.830Z,12.70
2022-10-20T18:14:17.766Z,12.70
2022-10-20T18:16:47.232Z,12.60
2022-10-20T18:19:18.839Z,12.60
2022-10-20T18:21:48.082Z,12.60
2022-10-20T18:24:21.152Z,12.50
2022-10-20T18:26:50.087Z,12.40
2022-10-20T18:29:19.367Z,12.40
2022-10-20T18:31:51.342Z,12.30
2022-10-20T18:34:21.774Z,12.30
2022-10-20T18:36:51.626Z,12.50
2022-10-20T18:39:22.414Z,12.50
2022-10-20T18:41:54.722Z,12.40
2022-10-20T18:44:23.955Z,12.40
2022-10-20T18:46:57.815Z,12.40
2022-10-20T18:49:29.489Z,12.40
2022-10-20T18:51:58.172Z,12.40
2022-10-20T18:54:28.437Z,12.40
2022-10-20T18:56:57.337Z,12.40
2022-10-20T18:59:26.119Z,12.20
2022-10-20T19:01:54.729Z,12.30
2022-10-20T19:04:23.479Z,12.40
2022-10-20T19:06:52.293Z,12.50
2022-10-20T19:09:22.776Z,12.50
2022-10-20T19:11:52.903Z,12.40
2022-10-20T19:14:21.540Z,12.40
2022-10-20T19:16:50.335Z,12.20
2022-10-20T19:19:19.143Z,12.20
2022-10-20T19:21:47.843Z,12.00
2022-10-20T19:24:21.188Z,12.00
2022-10-20T19:27:02.401Z,12.10
2022-10-20T19:29:42.524Z,12.20
2022-10-20T19:32:12.260Z,12.30
2022-10-20T19:34:42.260Z,12.20
2022-10-20T19:37:11.170Z,12.10
2022-10-20T19:39:42.891Z,12.10
2022-10-20T19:42:13.894Z,12.00
2022-10-20T19:44:42.798Z,12.10
2022-10-20T19:47:12.779Z,12.00
2022-10-20T19:49:41.769Z,12.00
2022-10-20T19:52:10.807Z,12.10
2022-10-20T19:54:39.510Z,12.00
2022-10-20T19:57:08.189Z,12.00
2022-10-20T19:59:38.196Z,12.10
2022-10-20T20:02:06.946Z,12.00
2022-10-20T20:04:35.557Z,12.00
2022-10-20T20:07:04.318Z,11.80
2022-10-20T20:09:33.141Z,11.60
2022-10-20T20:12:01.807Z,11.50
2022-10-20T20:14:30.416Z,11.50
2022-10-20T20:17:00.388Z,11.50
2022-10-20T20:19:29.155Z,11.50
2022-10-20T20:21:57.787Z,11.50
2022-10-20T20:24:26.605Z,11.40
2022-10-20T20:26:55.228Z,11.30
2022-10-20T20:29:23.864Z,11.30
2022-10-20T20:31:52.733Z,11.40
2022-10-20T20:34:22.985Z,11.40
2022-10-20T20:36:51.735Z,11.40
2022-10-20T20:39:20.402Z,11.40
2022-10-20T20:41:50.159Z,11.10
2022-10-20T20:44:18.878Z,11.10
2022-10-20T20:46:47.473Z,11.20
2022-10-20T20:49:16.109Z,11.20
2022-10-20T20:51:46.077Z,11.20
2022-10-20T20:54:14.617Z,10.90
2022-10-20T20:56:43.930Z,10.90
2022-10-20T20:59:12.523Z,10.80
2022-10-20T21:01:42.158Z,10.80
2022-10-20T21:04:11.442Z,10.70
2022-10-20T21:07:01.123Z,10.90
2022-10-20T21:09:33.071Z,10.80
2022-10-20T21:12:01.899Z,10.80
2022-10-20T21:14:31.261Z,10.70
2022-10-20T21:17:00.904Z,10.70
2022-10-20T21:19:29.895Z,10.70
2022-10-20T21:21:58.603Z,10.60
2022-10-20T21:24:28.413Z,10.70
2022-10-20T21:26:58.511Z,10.70
2022-10-20T21:29:27.515Z,10.60
2022-10-20T21:31:58.038Z,10.50
2022-10-20T21:34:27.098Z,10.50
2022-10-20T21:36:55.725Z,10.70
2022-10-20T21:39:24.381Z,10.70
2022-10-20T21:41:53.003Z,10.60
2022-10-20T21:44:23.105Z,10.50
2022-10-20T21:46:53.689Z,10.40
2022-10-20T21:49:25.391Z,10.40
2022-10-20T21:51:57.480Z,10.30
2022-10-20T21:54:29.186Z,10.20
2022-10-20T21:56:58.518Z,10.10
2022-10-20T21:59:31.399Z,9.90
2022-10-20T22:02:02.247Z,12.60
2022-10-20T22:04:32.149Z,11.00
2022-10-20T22:07:00.773Z,10.30
2022-10-20T22:09:29.645Z,10.20
2022-10-20T22:11:59.715Z,10.20
2022-10-20T22:14:30.706Z,10.20
2022-10-20T22:17:00.070Z,10.20
2022-10-20T22:19:28.899Z,10.10
2022-10-20T22:24:27.885Z,9.90
2022-10-20T22:26:56.407Z,9.80
2022-10-20T22:29:25.306Z,9.90
2022-10-20T22:31:55.605Z,9.80
2022-10-20T22:34:24.268Z,9.90
2022-10-20T22:36:52.844Z,9.80
2022-10-20T22:39:21.671Z,9.70
2022-10-20T22:41:50.260Z,9.70
2022-10-20T22:44:19.105Z,9.70
2022-10-20T22:46:47.731Z,9.80
2022-10-20T22:49:17.848Z,9.80
2022-10-20T22:51:46.436Z,9.60
2022-10-20T22:54:15.084Z,9.60
2022-10-20T22:56:43.728Z,9.50
2022-10-20T22:59:12.412Z,9.50
2022-10-20T23:01:41.096Z,9.50
2022-10-20T23:04:09.733Z,9.50
2022-10-20T23:06:41.198Z,9.50
2022-10-20T23:09:10.954Z,9.60
2022-10-20T23:11:39.620Z,9.70
2022-10-20T23:14:08.340Z,9.80
2022-10-20T23:16:37.038Z,9.70
2022-10-20T23:19:05.756Z,9.80
2022-10-20T23:21:34.697Z,9.70
2022-10-20T23:24:05.141Z,9.70
2022-10-20T23:26:33.878Z,9.70
2022-10-20T23:29:02.692Z,9.60
2022-10-20T23:31:31.523Z,9.50
2022-10-20T23:34:00.570Z,9.50
2022-10-20T23:36:29.185Z,9.50
2022-10-20T23:38:57.836Z,9.40
2022-10-20T23:41:27.848Z,9.40
2022-10-20T23:43:56.380Z,9.40
2022-10-20T23:46:25.012Z,9.20
2022-10-20T23:48:53.693Z,9.20
2022-10-20T23:51:22.309Z,9.20
2022-10-20T23:53:50.974Z,9.20
2022-10-20T23:56:19.857Z,9.20
2022-10-20T23:58:50.020Z,9.20
